BCY5122 EIDW-EGLC
Flight info
| Callsign | BCY5122 |
|---|---|
| Flight time | 1h 5m |
| Altitude | 31000 |
| Route | ENDEQ3J ENDEQ Q36 NOSLO Z197 LISTO |
| Aircraft | RJ85/M-SDFGIRWY/LB1 |
Departure
| Time | 2026-05-04 18:22 |
|---|---|
| Airport | Dublin Airport (EIDW) |
Arrival
| Time | 2026-05-04 19:28 |
|---|---|
| Airport | London City Airport (EGLC) |
| Time | Latitude | Longitude | Altitude | Speed | Heading |
|---|---|---|---|---|---|
| 2026-05-04 18:01 | 53.42691 | -6.24577 | 211 ft | 0 kts | 140° |
| 2026-05-04 18:09 | 53.42692 | -6.24578 | 211 ft | 2 kts | 140° |
| 2026-05-04 18:09 | 53.42717 | -6.24613 | 211 ft | 2 kts | 140° |
| 2026-05-04 18:10 | 53.42728 | -6.24632 | 221 ft | 2 kts | 114° |
| 2026-05-04 18:10 | 53.42738 | -6.24650 | 211 ft | 2 kts | 208° |
| 2026-05-04 18:10 | 53.42743 | -6.24642 | 213 ft | 0 kts | 241° |
| 2026-05-04 18:14 | 53.42726 | -6.24708 | 215 ft | 7 kts | 252° |
| 2026-05-04 18:14 | 53.42692 | -6.24792 | 211 ft | 11 kts | 224° |
| 2026-05-04 18:14 | 53.42660 | -6.24921 | 211 ft | 14 kts | 300° |
| 2026-05-04 18:15 | 53.42748 | -6.25012 | 213 ft | 16 kts | 324° |
| 2026-05-04 18:15 | 53.42770 | -6.25295 | 218 ft | 4 kts | 225° |
| 2026-05-04 18:15 | 53.42757 | -6.25316 | 211 ft | 0 kts | 226° |
| 2026-05-04 18:16 | 53.42731 | -6.25360 | 211 ft | 14 kts | 225° |
| 2026-05-04 18:16 | 53.42647 | -6.25501 | 211 ft | 21 kts | 225° |
| 2026-05-04 18:16 | 53.42550 | -6.25667 | 216 ft | 19 kts | 226° |
| 2026-05-04 18:17 | 53.42381 | -6.25956 | 210 ft | 16 kts | 227° |
| 2026-05-04 18:17 | 53.42305 | -6.26093 | 216 ft | 17 kts | 232° |
| 2026-05-04 18:17 | 53.42277 | -6.26489 | 215 ft | 19 kts | 275° |
| 2026-05-04 18:18 | 53.42288 | -6.26712 | 211 ft | 20 kts | 275° |
| 2026-05-04 18:18 | 53.42299 | -6.26948 | 210 ft | 21 kts | 274° |
| 2026-05-04 18:18 | 53.42311 | -6.27194 | 217 ft | 22 kts | 279° |
| 2026-05-04 18:18 | 53.42329 | -6.27449 | 210 ft | 22 kts | 276° |
| 2026-05-04 18:19 | 53.42354 | -6.27923 | 218 ft | 18 kts | 275° |
| 2026-05-04 18:19 | 53.42364 | -6.28127 | 211 ft | 17 kts | 278° |
| 2026-05-04 18:19 | 53.42357 | -6.28299 | 214 ft | 15 kts | 222° |
| 2026-05-04 18:20 | 53.42274 | -6.28284 | 218 ft | 12 kts | 136° |
| 2026-05-04 18:20 | 53.42208 | -6.28210 | 217 ft | 11 kts | 137° |
| 2026-05-04 18:20 | 53.42193 | -6.28134 | 211 ft | 3 kts | 94° |
| 2026-05-04 18:20 | 53.42188 | -6.28039 | 215 ft | 25 kts | 94° |
| 2026-05-04 18:21 | 53.42160 | -6.27501 | 216 ft | 67 kts | 95° |
| 2026-05-04 18:21 | 53.42107 | -6.26526 | 211 ft | 99 kts | 95° |
| 2026-05-04 18:21 | 53.42008 | -6.24738 | 217 ft | 131 kts | 96° |
| 2026-05-04 18:21 | 53.41942 | -6.23241 | 440 ft | 129 kts | 95° |
| 2026-05-04 18:22 | 53.41900 | -6.21750 | 647 ft | 125 kts | 91° |
| 2026-05-04 18:22 | 53.41866 | -6.20263 | 780 ft | 130 kts | 95° |
| 2026-05-04 18:22 | 53.41795 | -6.19226 | 837 ft | 138 kts | 97° |
| 2026-05-04 18:22 | 53.41669 | -6.17560 | 914 ft | 152 kts | 92° |
| 2026-05-04 18:23 | 53.41549 | -6.15692 | 1065 ft | 166 kts | 92° |
| 2026-05-04 18:23 | 53.41434 | -6.13765 | 1464 ft | 167 kts | 92° |
| 2026-05-04 18:23 | 53.41320 | -6.11804 | 1816 ft | 170 kts | 92° |
| 2026-05-04 18:23 | 53.41203 | -6.09783 | 2053 ft | 181 kts | 91° |
| 2026-05-04 18:24 | 53.41083 | -6.07613 | 2344 ft | 189 kts | 91° |
| 2026-05-04 18:24 | 53.40970 | -6.05412 | 2904 ft | 190 kts | 87° |
| 2026-05-04 18:24 | 53.41025 | -6.03202 | 3459 ft | 190 kts | 81° |
| 2026-05-04 18:24 | 53.41160 | -6.00972 | 3985 ft | 194 kts | 80° |
| 2026-05-04 18:25 | 53.41315 | -5.98704 | 4497 ft | 198 kts | 80° |
| 2026-05-04 18:25 | 53.41486 | -5.96391 | 5027 ft | 202 kts | 81° |
| 2026-05-04 18:25 | 53.41661 | -5.94052 | 5598 ft | 203 kts | 81° |
| 2026-05-04 18:25 | 53.41833 | -5.91691 | 6179 ft | 205 kts | 82° |
| 2026-05-04 18:26 | 53.42003 | -5.89314 | 6747 ft | 207 kts | 82° |
| 2026-05-04 18:26 | 53.42178 | -5.86823 | 7080 ft | 223 kts | 82° |
| 2026-05-04 18:26 | 53.42359 | -5.84161 | 7443 ft | 236 kts | 83° |
| 2026-05-04 18:26 | 53.42531 | -5.81387 | 7950 ft | 241 kts | 83° |
| 2026-05-04 18:27 | 53.42706 | -5.78579 | 8581 ft | 243 kts | 83° |
| 2026-05-04 18:27 | 53.42890 | -5.75752 | 9248 ft | 246 kts | 83° |
| 2026-05-04 18:27 | 53.43083 | -5.72811 | 9623 ft | 261 kts | 82° |
| 2026-05-04 18:27 | 53.43290 | -5.69697 | 10037 ft | 275 kts | 82° |
| 2026-05-04 18:28 | 53.43504 | -5.66454 | 10534 ft | 283 kts | 83° |
| 2026-05-04 18:28 | 53.43724 | -5.63152 | 11195 ft | 286 kts | 83° |
| 2026-05-04 18:28 | 53.43947 | -5.59860 | 11858 ft | 289 kts | 82° |
| 2026-05-04 18:28 | 53.44177 | -5.56482 | 12537 ft | 293 kts | 83° |
| 2026-05-04 18:29 | 53.44412 | -5.53072 | 13259 ft | 295 kts | 83° |
| 2026-05-04 18:29 | 53.44622 | -5.49622 | 13907 ft | 299 kts | 87° |
| 2026-05-04 18:29 | 53.44634 | -5.46124 | 14508 ft | 302 kts | 91° |
| 2026-05-04 18:29 | 53.44555 | -5.42605 | 15115 ft | 302 kts | 92° |
| 2026-05-04 18:30 | 53.44324 | -5.35535 | 16268 ft | 305 kts | 92° |
| 2026-05-04 18:30 | 53.44205 | -5.31975 | 16813 ft | 307 kts | 91° |
| 2026-05-04 18:30 | 53.44096 | -5.28387 | 17345 ft | 308 kts | 92° |
| 2026-05-04 18:31 | 53.43990 | -5.24786 | 17856 ft | 310 kts | 91° |
| 2026-05-04 18:31 | 53.43890 | -5.21163 | 18352 ft | 312 kts | 91° |
| 2026-05-04 18:31 | 53.43797 | -5.17520 | 18759 ft | 313 kts | 91° |
| 2026-05-04 18:31 | 53.43702 | -5.13857 | 19150 ft | 315 kts | 91° |
| 2026-05-04 18:32 | 53.43594 | -5.10188 | 19571 ft | 315 kts | 91° |
| 2026-05-04 18:32 | 53.43477 | -5.06513 | 19942 ft | 317 kts | 91° |
| 2026-05-04 18:32 | 53.43358 | -5.02812 | 20283 ft | 320 kts | 92° |
| 2026-05-04 18:32 | 53.43242 | -4.99097 | 20664 ft | 320 kts | 92° |
| 2026-05-04 18:33 | 53.43118 | -4.95372 | 21035 ft | 320 kts | 92° |
| 2026-05-04 18:33 | 53.42993 | -4.91633 | 21340 ft | 323 kts | 92° |
| 2026-05-04 18:33 | 53.42869 | -4.87870 | 21669 ft | 323 kts | 92° |
| 2026-05-04 18:33 | 53.42745 | -4.84093 | 22000 ft | 324 kts | 92° |
| 2026-05-04 18:34 | 53.42617 | -4.80309 | 22278 ft | 326 kts | 92° |
| 2026-05-04 18:34 | 53.42488 | -4.76499 | 22557 ft | 328 kts | 92° |
| 2026-05-04 18:34 | 53.42360 | -4.72674 | 22861 ft | 329 kts | 92° |
| 2026-05-04 18:34 | 53.42229 | -4.68846 | 23149 ft | 330 kts | 92° |
| 2026-05-04 18:35 | 53.42097 | -4.64992 | 23425 ft | 332 kts | 92° |
| 2026-05-04 18:35 | 53.41967 | -4.61126 | 23716 ft | 333 kts | 92° |
| 2026-05-04 18:35 | 53.41841 | -4.57249 | 23958 ft | 333 kts | 92° |
| 2026-05-04 18:35 | 53.41714 | -4.53361 | 24188 ft | 335 kts | 92° |
| 2026-05-04 18:36 | 53.41570 | -4.49458 | 24429 ft | 336 kts | 92° |
| 2026-05-04 18:36 | 53.41429 | -4.45548 | 24618 ft | 338 kts | 92° |
| 2026-05-04 18:36 | 53.41288 | -4.41605 | 24861 ft | 339 kts | 92° |
| 2026-05-04 18:36 | 53.41148 | -4.37668 | 25139 ft | 338 kts | 92° |
| 2026-05-04 18:37 | 53.41002 | -4.33736 | 25414 ft | 337 kts | 92° |
| 2026-05-04 18:37 | 53.40858 | -4.29866 | 25644 ft | 339 kts | 92° |
| 2026-05-04 18:37 | 53.40705 | -4.25888 | 25670 ft | 346 kts | 92° |
| 2026-05-04 18:37 | 53.40548 | -4.21765 | 25685 ft | 354 kts | 92° |
| 2026-05-04 18:38 | 53.40390 | -4.17668 | 25697 ft | 361 kts | 92° |
| 2026-05-04 18:38 | 53.40230 | -4.13431 | 25714 ft | 368 kts | 92° |
| 2026-05-04 18:38 | 53.40066 | -4.09133 | 25864 ft | 370 kts | 92° |
| 2026-05-04 18:38 | 53.39903 | -4.04831 | 26120 ft | 370 kts | 92° |
| 2026-05-04 18:39 | 53.39737 | -4.00539 | 26383 ft | 369 kts | 92° |
| 2026-05-04 18:39 | 53.39556 | -3.96258 | 26641 ft | 368 kts | 92° |
| 2026-05-04 18:39 | 53.39379 | -3.91988 | 26897 ft | 367 kts | 92° |
| 2026-05-04 18:39 | 53.39204 | -3.87727 | 27152 ft | 366 kts | 92° |
| 2026-05-04 18:40 | 53.39027 | -3.83473 | 27403 ft | 366 kts | 92° |
| 2026-05-04 18:40 | 53.38847 | -3.79228 | 27650 ft | 365 kts | 92° |
| 2026-05-04 18:40 | 53.38665 | -3.74995 | 27892 ft | 364 kts | 92° |
| 2026-05-04 18:40 | 53.38479 | -3.70770 | 28130 ft | 363 kts | 92° |
| 2026-05-04 18:41 | 53.38291 | -3.66554 | 28358 ft | 363 kts | 92° |
| 2026-05-04 18:41 | 53.37982 | -3.62359 | 28577 ft | 363 kts | 98° |
| 2026-05-04 18:41 | 53.37480 | -3.58217 | 28806 ft | 363 kts | 101° |
| 2026-05-04 18:41 | 53.36907 | -3.54136 | 29025 ft | 363 kts | 101° |
| 2026-05-04 18:42 | 53.36305 | -3.50002 | 29251 ft | 362 kts | 101° |
| 2026-05-04 18:42 | 53.35709 | -3.45915 | 29465 ft | 361 kts | 101° |
| 2026-05-04 18:42 | 53.35116 | -3.41822 | 29678 ft | 361 kts | 101° |
| 2026-05-04 18:42 | 53.34545 | -3.37745 | 29890 ft | 360 kts | 101° |
| 2026-05-04 18:43 | 53.33958 | -3.33678 | 30097 ft | 360 kts | 102° |
| 2026-05-04 18:43 | 53.33310 | -3.29629 | 30272 ft | 360 kts | 103° |
| 2026-05-04 18:43 | 53.32637 | -3.25606 | 30424 ft | 360 kts | 103° |
| 2026-05-04 18:43 | 53.31952 | -3.21584 | 30576 ft | 359 kts | 103° |
| 2026-05-04 18:44 | 53.31281 | -3.17558 | 30720 ft | 359 kts | 103° |
| 2026-05-04 18:44 | 53.29963 | -3.09520 | 30960 ft | 355 kts | 103° |
| 2026-05-04 18:45 | 53.28653 | -3.01620 | 30988 ft | 352 kts | 103° |
| 2026-05-04 18:45 | 53.27316 | -2.93753 | 30993 ft | 352 kts | 103° |
| 2026-05-04 18:46 | 53.26001 | -2.85855 | 31000 ft | 354 kts | 103° |
| 2026-05-04 18:46 | 53.24640 | -2.77843 | 31015 ft | 363 kts | 104° |
| 2026-05-04 18:47 | 53.23231 | -2.69655 | 31015 ft | 371 kts | 104° |
| 2026-05-04 18:47 | 53.21462 | -2.61483 | 31020 ft | 383 kts | 121° |
| 2026-05-04 18:47 | 53.19394 | -2.58751 | 31037 ft | 397 kts | 170° |
| 2026-05-04 18:48 | 53.16649 | -2.58610 | 31094 ft | 391 kts | 161° |
| 2026-05-04 18:48 | 53.14129 | -2.57099 | 31180 ft | 384 kts | 146° |
| 2026-05-04 18:48 | 53.12068 | -2.54354 | 31174 ft | 380 kts | 131° |
| 2026-05-04 18:49 | 53.08592 | -2.47622 | 31072 ft | 386 kts | 122° |
| 2026-05-04 18:49 | 53.05532 | -2.40240 | 31027 ft | 389 kts | 122° |
| 2026-05-04 18:50 | 53.02399 | -2.32880 | 31012 ft | 391 kts | 123° |
| 2026-05-04 18:50 | 52.99182 | -2.25663 | 30998 ft | 392 kts | 124° |
| 2026-05-04 18:51 | 52.95883 | -2.18393 | 30998 ft | 392 kts | 124° |
| 2026-05-04 18:51 | 52.92641 | -2.11212 | 30994 ft | 392 kts | 124° |
| 2026-05-04 18:52 | 52.89366 | -2.04004 | 30990 ft | 392 kts | 124° |
| 2026-05-04 18:52 | 52.86096 | -1.96760 | 30992 ft | 394 kts | 125° |
| 2026-05-04 18:53 | 52.82761 | -1.89522 | 30991 ft | 397 kts | 126° |
| 2026-05-04 18:53 | 52.79438 | -1.82216 | 30993 ft | 398 kts | 126° |
| 2026-05-04 18:54 | 52.75823 | -1.75298 | 30997 ft | 399 kts | 135° |
| 2026-05-04 18:54 | 52.71578 | -1.69391 | 30963 ft | 400 kts | 146° |
| 2026-05-04 18:55 | 52.66745 | -1.64792 | 30955 ft | 402 kts | 153° |
| 2026-05-04 18:55 | 52.59263 | -1.58593 | 30945 ft | 401 kts | 153° |
| 2026-05-04 18:56 | 52.54300 | -1.54405 | 30945 ft | 401 kts | 152° |
| 2026-05-04 18:56 | 52.49367 | -1.50160 | 30997 ft | 400 kts | 153° |
| 2026-05-04 18:57 | 52.44433 | -1.45942 | 30992 ft | 401 kts | 153° |
| 2026-05-04 18:57 | 52.39478 | -1.41740 | 30990 ft | 401 kts | 154° |
| 2026-05-04 18:58 | 52.34529 | -1.37530 | 30984 ft | 401 kts | 154° |
| 2026-05-04 18:58 | 52.29815 | -1.32688 | 30991 ft | 401 kts | 142° |
| 2026-05-04 18:59 | 52.25826 | -1.26283 | 30995 ft | 404 kts | 133° |
| 2026-05-04 18:59 | 52.22223 | -1.19252 | 30994 ft | 404 kts | 131° |
| 2026-05-04 19:00 | 52.18679 | -1.12146 | 30990 ft | 404 kts | 131° |
| 2026-05-04 19:00 | 52.15170 | -1.05017 | 30985 ft | 405 kts | 122° |
| 2026-05-04 19:01 | 52.14143 | -1.00754 | 31009 ft | 407 kts | 106° |
| 2026-05-04 19:01 | 52.13495 | -0.96254 | 30997 ft | 409 kts | 102° |
| 2026-05-04 19:01 | 52.12995 | -0.86977 | 31030 ft | 414 kts | 92° |
| 2026-05-04 19:02 | 52.13089 | -0.77567 | 31034 ft | 417 kts | 90° |
| 2026-05-04 19:02 | 52.13234 | -0.68135 | 31031 ft | 416 kts | 91° |
| 2026-05-04 19:03 | 52.13293 | -0.58726 | 31029 ft | 415 kts | 91° |
| 2026-05-04 19:03 | 52.13325 | -0.49371 | 30808 ft | 420 kts | 91° |
| 2026-05-04 19:04 | 52.13336 | -0.44602 | 30346 ft | 419 kts | 91° |
| 2026-05-04 19:04 | 52.13346 | -0.39866 | 29638 ft | 420 kts | 91° |
| 2026-05-04 19:04 | 52.13355 | -0.35056 | 28854 ft | 427 kts | 91° |
| 2026-05-04 19:04 | 52.13365 | -0.30216 | 28091 ft | 428 kts | 92° |
| 2026-05-04 19:05 | 52.13350 | -0.25368 | 27350 ft | 429 kts | 92° |
| 2026-05-04 19:05 | 52.13337 | -0.20502 | 26630 ft | 431 kts | 92° |
| 2026-05-04 19:05 | 52.13344 | -0.15606 | 25928 ft | 433 kts | 92° |
| 2026-05-04 19:05 | 52.13343 | -0.10693 | 25243 ft | 435 kts | 92° |
| 2026-05-04 19:06 | 52.13322 | -0.05759 | 24570 ft | 437 kts | 92° |
| 2026-05-04 19:06 | 52.13310 | -0.02416 | 24124 ft | 438 kts | 92° |
| 2026-05-04 19:06 | 52.13311 | 0.02561 | 23443 ft | 439 kts | 92° |
| 2026-05-04 19:06 | 52.13312 | 0.07493 | 22676 ft | 433 kts | 92° |
| 2026-05-04 19:07 | 52.13280 | 0.12210 | 21567 ft | 410 kts | 94° |
| 2026-05-04 19:07 | 52.13110 | 0.16860 | 20455 ft | 405 kts | 97° |
| 2026-05-04 19:07 | 52.12821 | 0.21319 | 19552 ft | 388 kts | 98° |
| 2026-05-04 19:07 | 52.12479 | 0.25601 | 18565 ft | 375 kts | 101° |
| 2026-05-04 19:08 | 52.11667 | 0.29536 | 17354 ft | 364 kts | 123° |
| 2026-05-04 19:08 | 52.10010 | 0.32531 | 16131 ft | 354 kts | 142° |
| 2026-05-04 19:08 | 52.08105 | 0.34948 | 14941 ft | 350 kts | 144° |
| 2026-05-04 19:08 | 52.06098 | 0.37247 | 13841 ft | 351 kts | 154° |
| 2026-05-04 19:09 | 52.03872 | 0.38743 | 13237 ft | 344 kts | 160° |
| 2026-05-04 19:09 | 52.01641 | 0.40112 | 12549 ft | 342 kts | 160° |
| 2026-05-04 19:09 | 51.99439 | 0.41466 | 12024 ft | 329 kts | 161° |
| 2026-05-04 19:09 | 51.97353 | 0.42752 | 11509 ft | 312 kts | 161° |
| 2026-05-04 19:10 | 51.95376 | 0.43965 | 11008 ft | 298 kts | 160° |
| 2026-05-04 19:10 | 51.93454 | 0.45132 | 10347 ft | 293 kts | 161° |
| 2026-05-04 19:10 | 51.91573 | 0.46279 | 9618 ft | 291 kts | 161° |
| 2026-05-04 19:10 | 51.89665 | 0.47444 | 8838 ft | 288 kts | 161° |
| 2026-05-04 19:11 | 51.87785 | 0.48601 | 8261 ft | 290 kts | 161° |
| 2026-05-04 19:11 | 51.85901 | 0.49752 | 8099 ft | 290 kts | 161° |
| 2026-05-04 19:11 | 51.84025 | 0.50889 | 8042 ft | 288 kts | 161° |
| 2026-05-04 19:11 | 51.82170 | 0.52005 | 8025 ft | 288 kts | 161° |
| 2026-05-04 19:12 | 51.80297 | 0.53131 | 8017 ft | 285 kts | 161° |
| 2026-05-04 19:12 | 51.76569 | 0.55362 | 8026 ft | 286 kts | 161° |
| 2026-05-04 19:12 | 51.74699 | 0.56491 | 8019 ft | 287 kts | 161° |
| 2026-05-04 19:13 | 51.72837 | 0.57603 | 8022 ft | 284 kts | 161° |
| 2026-05-04 19:13 | 51.70978 | 0.58692 | 8021 ft | 285 kts | 161° |
| 2026-05-04 19:13 | 51.69114 | 0.59784 | 8021 ft | 285 kts | 162° |
| 2026-05-04 19:13 | 51.67249 | 0.60890 | 8022 ft | 287 kts | 161° |
| 2026-05-04 19:14 | 51.65382 | 0.62003 | 8023 ft | 286 kts | 161° |
| 2026-05-04 19:14 | 51.63515 | 0.63121 | 8020 ft | 285 kts | 161° |
| 2026-05-04 19:14 | 51.61641 | 0.64219 | 7673 ft | 290 kts | 161° |
| 2026-05-04 19:14 | 51.59733 | 0.65335 | 7184 ft | 289 kts | 161° |
| 2026-05-04 19:15 | 51.57877 | 0.66433 | 6698 ft | 281 kts | 161° |
| 2026-05-04 19:15 | 51.56059 | 0.67505 | 6189 ft | 275 kts | 161° |
| 2026-05-04 19:15 | 51.54198 | 0.68049 | 5664 ft | 273 kts | 186° |
| 2026-05-04 19:15 | 51.52448 | 0.66973 | 5161 ft | 272 kts | 220° |
| 2026-05-04 19:16 | 51.51123 | 0.64825 | 4698 ft | 271 kts | 230° |
| 2026-05-04 19:16 | 51.49831 | 0.62593 | 4253 ft | 271 kts | 229° |
| 2026-05-04 19:16 | 51.48568 | 0.60370 | 4078 ft | 268 kts | 230° |
| 2026-05-04 19:16 | 51.47338 | 0.58123 | 4029 ft | 266 kts | 230° |
| 2026-05-04 19:17 | 51.46130 | 0.55867 | 4019 ft | 266 kts | 231° |
| 2026-05-04 19:17 | 51.44920 | 0.53610 | 4020 ft | 266 kts | 230° |
| 2026-05-04 19:17 | 51.43925 | 0.51128 | 4011 ft | 265 kts | 256° |
| 2026-05-04 19:17 | 51.43714 | 0.48238 | 4031 ft | 262 kts | 271° |
| 2026-05-04 19:18 | 51.43655 | 0.45281 | 3786 ft | 266 kts | 269° |
| 2026-05-04 19:18 | 51.43569 | 0.42299 | 3538 ft | 269 kts | 268° |
| 2026-05-04 19:18 | 51.43463 | 0.39323 | 3280 ft | 266 kts | 268° |
| 2026-05-04 19:18 | 51.43344 | 0.36545 | 3083 ft | 233 kts | 267° |
| 2026-05-04 19:19 | 51.43203 | 0.33996 | 3006 ft | 231 kts | 265° |
| 2026-05-04 19:19 | 51.43050 | 0.31437 | 2998 ft | 230 kts | 267° |
| 2026-05-04 19:19 | 51.42978 | 0.28880 | 2993 ft | 227 kts | 273° |
| 2026-05-04 19:19 | 51.43032 | 0.26416 | 2995 ft | 216 kts | 275° |
| 2026-05-04 19:20 | 51.43111 | 0.24114 | 3036 ft | 198 kts | 277° |
| 2026-05-04 19:20 | 51.43193 | 0.21960 | 3070 ft | 197 kts | 276° |
| 2026-05-04 19:20 | 51.43283 | 0.19744 | 3072 ft | 197 kts | 276° |
| 2026-05-04 19:20 | 51.43372 | 0.17565 | 3046 ft | 196 kts | 276° |
| 2026-05-04 19:21 | 51.43457 | 0.15375 | 3033 ft | 198 kts | 277° |
| 2026-05-04 19:21 | 51.43551 | 0.13190 | 2826 ft | 200 kts | 276° |
| 2026-05-04 19:21 | 51.43644 | 0.10967 | 2566 ft | 199 kts | 276° |
| 2026-05-04 19:21 | 51.43726 | 0.08723 | 2280 ft | 201 kts | 275° |
| 2026-05-04 19:22 | 51.43802 | 0.06522 | 2105 ft | 199 kts | 275° |
| 2026-05-04 19:22 | 51.43867 | 0.04327 | 2030 ft | 195 kts | 275° |
| 2026-05-04 19:22 | 51.43936 | 0.02157 | 2009 ft | 196 kts | 276° |
| 2026-05-04 19:22 | 51.43998 | -0.00007 | 2008 ft | 193 kts | 275° |
| 2026-05-04 19:23 | 51.44062 | -0.02188 | 2003 ft | 197 kts | 275° |
| 2026-05-04 19:23 | 51.44126 | -0.04365 | 2010 ft | 194 kts | 274° |
| 2026-05-04 19:23 | 51.44193 | -0.06529 | 2020 ft | 196 kts | 275° |
| 2026-05-04 19:23 | 51.44394 | -0.08666 | 2003 ft | 193 kts | 298° |
| 2026-05-04 19:24 | 51.45287 | -0.10172 | 2027 ft | 187 kts | 327° |
| 2026-05-04 19:24 | 51.46425 | -0.11182 | 2031 ft | 186 kts | 341° |
| 2026-05-04 19:24 | 51.47638 | -0.11793 | 2023 ft | 177 kts | 349° |
| 2026-05-04 19:24 | 51.48746 | -0.11740 | 2013 ft | 148 kts | 25° |
| 2026-05-04 19:25 | 51.49609 | -0.10926 | 1997 ft | 142 kts | 38° |
| 2026-05-04 19:25 | 51.50344 | -0.09890 | 2000 ft | 140 kts | 46° |
| 2026-05-04 19:25 | 51.50936 | -0.08659 | 1972 ft | 143 kts | 72° |
| 2026-05-04 19:25 | 51.50901 | -0.07115 | 2003 ft | 129 kts | 89° |
| 2026-05-04 19:26 | 51.50877 | -0.05764 | 1924 ft | 121 kts | 88° |
| 2026-05-04 19:26 | 51.50821 | -0.04374 | 1656 ft | 122 kts | 89° |
| 2026-05-04 19:26 | 51.50780 | -0.03032 | 1556 ft | 119 kts | 88° |
| 2026-05-04 19:26 | 51.50739 | -0.01701 | 1479 ft | 121 kts | 89° |
| 2026-05-04 19:27 | 51.50684 | -0.00323 | 1164 ft | 123 kts | 90° |
| 2026-05-04 19:27 | 51.50669 | 0.01015 | 881 ft | 117 kts | 90° |
| 2026-05-04 19:27 | 51.50614 | 0.02322 | 521 ft | 116 kts | 90° |
| 2026-05-04 19:27 | 51.50589 | 0.03571 | 286 ft | 109 kts | 92° |
| 2026-05-04 19:28 | 51.50546 | 0.04781 | 43 ft | 102 kts | 90° |
| 2026-05-04 19:28 | 51.50518 | 0.05746 | 23 ft | 66 kts | 93° |
| 2026-05-04 19:28 | 51.50500 | 0.06294 | 27 ft | 32 kts | 95° |
| 2026-05-04 19:28 | 51.50484 | 0.06536 | 28 ft | 12 kts | 137° |
| 2026-05-04 19:29 | 51.50422 | 0.06467 | 26 ft | 12 kts | 237° |
| 2026-05-04 19:29 | 51.50426 | 0.06371 | 27 ft | 2 kts | 306° |
| 2026-05-04 19:29 | 51.50432 | 0.06359 | 27 ft | 0 kts | 314° |
| 2026-05-04 19:29 | 51.50430 | 0.06339 | 27 ft | 7 kts | 246° |
| 2026-05-04 19:30 | 51.50411 | 0.06217 | 26 ft | 13 kts | 271° |
| 2026-05-04 19:30 | 51.50413 | 0.06059 | 22 ft | 15 kts | 270° |
| 2026-05-04 19:30 | 51.50429 | 0.05888 | 22 ft | 15 kts | 276° |
| 2026-05-04 19:30 | 51.50435 | 0.05734 | 23 ft | 14 kts | 274° |
| 2026-05-04 19:31 | 51.50439 | 0.05568 | 21 ft | 16 kts | 271° |
| 2026-05-04 19:31 | 51.50440 | 0.05389 | 25 ft | 15 kts | 271° |
| 2026-05-04 19:31 | 51.50447 | 0.05233 | 28 ft | 14 kts | 274° |
| 2026-05-04 19:31 | 51.50454 | 0.05069 | 27 ft | 16 kts | 277° |
| 2026-05-04 19:32 | 51.50465 | 0.04919 | 28 ft | 9 kts | 268° |
| 2026-05-04 19:32 | 51.50467 | 0.04813 | 30 ft | 9 kts | 277° |
| 2026-05-04 19:32 | 51.50440 | 0.04785 | 29 ft | 2 kts | 172° |
| 2026-05-04 19:32 | 51.50437 | 0.04771 | 29 ft | 0 kts | 315° |